createdAt,value
2016-02-19T00:00:05.219Z,0.28
2016-02-19T00:01:05.205Z,0.24
2016-02-19T00:02:05.208Z,0.26
2016-02-19T00:03:05.211Z,0.32
2016-02-19T00:04:05.198Z,0.32
2016-02-19T00:05:05.185Z,0.29
2016-02-19T00:06:05.172Z,0.31
2016-02-19T00:07:05.159Z,0.28
2016-02-19T00:08:05.163Z,0.38
2016-02-19T00:09:05.149Z,0.44
2016-02-19T00:10:05.152Z,0.42
2016-02-19T00:11:05.138Z,0.38
2016-02-19T00:12:05.141Z,0.39
2016-02-19T00:13:05.129Z,0.42
2016-02-19T00:14:05.115Z,0.42
2016-02-19T00:15:05.103Z,0.36
2016-02-19T00:16:05.105Z,0.38
2016-02-19T00:17:05.092Z,0.44
2016-02-19T00:18:05.095Z,0.42
2016-02-19T00:19:05.082Z,0.42
2016-02-19T00:20:05.084Z,0.41
2016-02-19T00:21:05.072Z,0.44
2016-02-19T00:22:05.059Z,0.42
2016-02-19T00:23:05.061Z,0.38
2016-02-19T00:24:05.048Z,0.35
2016-02-19T00:25:05.051Z,0.38
2016-02-19T00:26:05.038Z,0.41
2016-02-19T00:27:05.026Z,0.39
2016-02-19T00:28:05.028Z,0.38
2016-02-19T00:29:05.015Z,0.36
2016-02-19T00:30:05.037Z,0.41
2016-02-19T00:31:04.993Z,0.38
2016-02-19T00:32:04.996Z,0.39
2016-02-19T00:33:04.984Z,0.39
2016-02-19T00:34:04.970Z,0.39
2016-02-19T00:35:04.972Z,0.32
2016-02-19T00:36:04.976Z,0.28
2016-02-19T00:37:04.962Z,0.35
2016-02-19T00:38:04.949Z,0.32
2016-02-19T00:39:04.953Z,0.32
2016-02-19T00:40:04.939Z,0.33
2016-02-19T00:41:04.926Z,0.31
2016-02-19T00:42:04.914Z,0.33
2016-02-19T00:43:04.916Z,0.28
2016-02-19T00:44:04.919Z,0.31
2016-02-19T00:45:04.906Z,0.35
2016-02-19T00:46:04.893Z,0.29
2016-02-19T00:47:04.880Z,0.28
2016-02-19T00:48:04.882Z,0.21
2016-02-19T00:49:04.870Z,0.24
2016-02-19T00:50:04.872Z,0.31
2016-02-19T00:51:04.875Z,0.23
2016-02-19T00:52:04.847Z,0.24
2016-02-19T00:53:04.833Z,0.26
2016-02-19T00:54:04.836Z,0.24
2016-02-19T00:55:04.839Z,0.26
2016-02-19T00:56:04.841Z,0.26
2016-02-19T00:57:04.829Z,0.28
2016-02-19T00:58:04.801Z,0.17
2016-02-19T00:59:04.803Z,0.24
2016-02-19T01:00:04.790Z,0.24
2016-02-19T01:01:04.793Z,0.17
2016-02-19T01:02:04.795Z,0.2
2016-02-19T01:03:04.782Z,0.23
2016-02-19T01:04:04.785Z,0.26
2016-02-19T01:05:04.600Z,0.26
2016-02-19T01:06:04.752Z,0.13
2016-02-19T01:07:04.740Z,0.23
2016-02-19T01:08:04.742Z,0.17
2016-02-19T01:09:04.745Z,0.21
2016-02-19T01:10:04.716Z,0.28
2016-02-19T01:11:04.718Z,0.2
2016-02-19T01:12:04.721Z,0.26
2016-02-19T01:13:04.709Z,0.17
2016-02-19T01:14:04.696Z,0.26
2016-02-19T01:15:04.698Z,0.26
2016-02-19T01:16:04.685Z,0.2
2016-02-19T01:17:04.673Z,0.21
2016-02-19T01:18:04.659Z,0.29
2016-02-19T01:19:04.662Z,0.28
2016-02-19T01:20:04.664Z,0.28
2016-02-19T01:21:04.652Z,0.29
2016-02-19T01:22:04.640Z,0.31
2016-02-19T01:23:04.642Z,0.24
2016-02-19T01:24:04.628Z,0.24
2016-02-19T01:25:04.648Z,0.24
2016-02-19T01:26:04.603Z,0.28
2016-02-19T01:27:04.606Z,0.32
2016-02-19T01:28:04.592Z,0.32
2016-02-19T01:29:04.595Z,0.32
2016-02-19T01:30:04.427Z,0.32
2016-02-19T01:31:04.586Z,0.29
2016-02-19T01:32:04.573Z,0.33
2016-02-19T01:33:04.560Z,0.29
2016-02-19T01:34:04.562Z,0.28
2016-02-19T01:35:04.549Z,0.33
2016-02-19T01:36:04.552Z,0.32
2016-02-19T01:37:04.554Z,0.33
2016-02-19T01:38:04.526Z,0.26
2016-02-19T01:39:04.513Z,0.38
2016-02-19T01:40:04.531Z,0.29
2016-02-19T01:41:04.503Z,0.46
2016-02-19T01:42:04.505Z,0.47
2016-02-19T01:43:04.336Z,0.35
2016-02-19T01:44:04.496Z,0.42
2016-02-19T01:45:04.482Z,0.39
2016-02-19T01:46:04.501Z,0.33
2016-02-19T01:47:04.457Z,0.41
2016-02-19T01:48:04.459Z,0.38
2016-02-19T01:49:04.446Z,0.39
2016-02-19T01:50:04.449Z,0.42
2016-02-19T01:51:04.436Z,0.38
2016-02-19T01:52:04.267Z,0.36
2016-02-19T01:53:04.426Z,0.31
2016-02-19T01:54:04.413Z,0.36
2016-02-19T01:55:04.400Z,0.41
2016-02-19T01:56:04.418Z,0.36
2016-02-19T01:57:04.389Z,0.36
2016-02-19T01:58:04.392Z,0.39
2016-02-19T01:59:04.379Z,0.42
2016-02-19T02:00:04.382Z,0.36
2016-02-19T02:01:04.353Z,0.35
2016-02-19T02:02:04.355Z,0.36
2016-02-19T02:03:04.374Z,0.35
2016-02-19T02:04:04.346Z,0.33
2016-02-19T02:05:04.349Z,0.38
2016-02-19T02:06:04.335Z,0.36
2016-02-19T02:07:04.322Z,0.35
2016-02-19T02:08:04.310Z,0.36
2016-02-19T02:09:04.328Z,0.33
2016-02-19T02:10:04.299Z,0.35
2016-02-19T02:11:04.302Z,0.44
2016-02-19T02:12:04.304Z,0.38
2016-02-19T02:13:04.277Z,0.39
2016-02-19T02:14:04.279Z,0.36
2016-02-19T02:15:04.281Z,0.39
2016-02-19T02:16:04.285Z,0.38
2016-02-19T02:17:04.256Z,0.36
2016-02-19T02:18:04.243Z,0.42
2016-02-19T02:19:04.246Z,0.39
2016-02-19T02:20:04.232Z,0.42
2016-02-19T02:21:04.235Z,0.26
2016-02-19T02:22:04.223Z,0.26
2016-02-19T02:23:04.226Z,0.35
2016-02-19T02:24:04.228Z,0.26
2016-02-19T02:25:04.214Z,0.35
2016-02-19T02:26:04.186Z,0.24
2016-02-19T02:27:04.189Z,0.28
2016-02-19T02:28:04.176Z,0.32
2016-02-19T02:29:04.179Z,0.29
2016-02-19T02:30:04.181Z,0.35
2016-02-19T02:31:04.152Z,0.29
2016-02-19T02:32:04.156Z,0.33
2016-02-19T02:33:04.142Z,0.33
2016-02-19T02:34:04.144Z,0.32
2016-02-19T02:35:04.133Z,0.33
2016-02-19T02:36:04.119Z,0.36
2016-02-19T02:37:03.982Z,0.32
2016-02-19T02:38:03.952Z,0.28
2016-02-19T02:39:04.112Z,0.33
2016-02-19T02:40:04.099Z,0.24
2016-02-19T02:41:04.101Z,0.24
2016-02-19T02:42:04.074Z,0.28
2016-02-19T02:43:04.091Z,0.32
2016-02-19T02:44:04.088Z,0.32
2016-02-19T02:45:03.897Z,0.29
2016-02-19T02:46:08.218Z,0.32
2016-02-19T02:47:04.050Z,0.31
2016-02-19T02:48:04.067Z,0.32
2016-02-19T02:49:04.039Z,0.28
2016-02-19T02:50:04.011Z,0.31
2016-02-19T02:51:04.014Z,0.28
2016-02-19T02:52:04.031Z,0.32
2016-02-19T02:53:04.034Z,0.32
2016-02-19T02:54:04.006Z,0.32
2016-02-19T02:55:04.103Z,0.24
2016-02-19T02:56:04.004Z,0.26
2016-02-19T02:57:03.992Z,0.31
2016-02-19T02:58:03.962Z,0.32
2016-02-19T02:59:03.997Z,0.26
2016-02-19T03:00:03.952Z,0.35
2016-02-19T03:01:03.940Z,0.33
2016-02-19T03:02:03.942Z,0.33
2016-02-19T03:03:03.930Z,0.32
2016-02-19T03:04:03.916Z,0.28
2016-02-19T03:05:03.919Z,0.32
2016-02-19T03:06:03.938Z,0.32
2016-02-19T03:07:03.909Z,0.33
2016-02-19T03:08:03.912Z,0.32
2016-02-19T03:09:03.899Z,0.28
2016-02-19T03:10:03.901Z,0.32
2016-02-19T03:11:03.888Z,0.28
2016-02-19T03:12:03.875Z,0.29
2016-02-19T03:13:03.862Z,0.26
2016-02-19T03:14:03.865Z,0.28
2016-02-19T03:15:03.852Z,0.35
2016-02-19T03:16:03.854Z,0.26
2016-02-19T03:17:04.639Z,0.21
2016-02-19T03:18:03.845Z,0.21
2016-02-19T03:19:03.816Z,0.23
2016-02-19T03:20:03.818Z,0.28
2016-02-19T03:21:03.806Z,0.28
2016-02-19T03:22:03.809Z,0.26
2016-02-19T03:23:03.795Z,0.2
2016-02-19T03:24:03.782Z,0.2
2016-02-19T03:25:03.785Z,0.24
2016-02-19T03:26:03.772Z,0.18
2016-02-19T03:27:03.791Z,0.23
2016-02-19T03:28:03.747Z,0.28
2016-02-19T03:29:03.764Z,0.26
2016-02-19T03:30:03.752Z,0.17
2016-02-19T03:31:03.755Z,0.18
2016-02-19T03:32:03.726Z,0.17
2016-02-19T03:33:03.728Z,0.2
2016-02-19T03:34:03.731Z,0.18
2016-02-19T03:35:03.719Z,0.26
2016-02-19T03:36:03.705Z,0.17
2016-02-19T03:37:03.693Z,0.13
2016-02-19T03:38:03.680Z,0.23
2016-02-19T03:39:03.683Z,0.18
2016-02-19T03:40:03.685Z,0.2
2016-02-19T03:41:03.672Z,0.26
2016-02-19T03:42:03.674Z,0.23
2016-02-19T03:43:03.662Z,0.14
2016-02-19T03:44:03.649Z,0.23
2016-02-19T03:45:03.651Z,0.23
2016-02-19T03:46:03.639Z,0.21
2016-02-19T03:47:03.626Z,0.18
2016-02-19T03:48:03.629Z,0.2
2016-02-19T03:49:03.615Z,0.14
2016-02-19T03:50:03.618Z,0.15
2016-02-19T03:51:03.605Z,0.2
2016-02-19T03:52:03.592Z,0.15
2016-02-19T03:53:03.595Z,0.21
2016-02-19T03:54:03.582Z,0.15
2016-02-19T03:55:03.584Z,0.15
2016-02-19T03:56:03.588Z,0.17
2016-02-19T03:57:03.559Z,0.17
2016-02-19T03:58:03.546Z,0.17
2016-02-19T03:59:03.548Z,0.14
2016-02-19T04:00:03.536Z,0.14
2016-02-19T04:01:04.101Z,0.17
2016-02-19T04:02:03.525Z,0.2
2016-02-19T04:03:03.372Z,0.14
2016-02-19T04:04:03.500Z,0.17
2016-02-19T04:05:03.517Z,0.15
2016-02-19T04:06:03.489Z,0.15
2016-02-19T04:07:03.508Z,0.1
2016-02-19T04:08:03.479Z,0.21
2016-02-19T04:09:03.466Z,0.1
2016-02-19T04:10:03.469Z,0.1
2016-02-19T04:11:03.518Z,0.15
2016-02-19T04:12:03.458Z,0.14
2016-02-19T04:13:03.461Z,0.1
2016-02-19T04:14:03.433Z,0.08
2016-02-19T04:15:03.435Z,0.14
2016-02-19T04:16:03.443Z,0.07
2016-02-19T04:17:03.430Z,0.13
2016-02-19T04:18:03.432Z,0.13
2016-02-19T04:19:03.404Z,0.1
2016-02-19T04:20:04.813Z,0.08
2016-02-19T04:21:03.393Z,0.1
2016-02-19T04:22:03.381Z,0.14
2016-02-19T04:23:03.384Z,0.11
2016-02-19T04:24:03.371Z,0.08
2016-02-19T04:25:03.373Z,0.04
2016-02-19T04:26:03.376Z,0.03
2016-02-19T04:27:03.347Z,-0.03
2016-02-19T04:28:03.334Z,0.02
2016-02-19T04:29:03.321Z,0.02
2016-02-19T04:30:03.340Z,0.03
2016-02-19T04:31:03.311Z,0.03
2016-02-19T04:32:03.314Z,0.1
2016-02-19T04:33:03.301Z,0.02
2016-02-19T04:34:03.303Z,0.04
2016-02-19T04:35:03.275Z,0.04
2016-02-19T04:36:03.294Z,-0.03
2016-02-19T04:37:03.265Z,0
2016-02-19T04:38:03.299Z,-0.07
2016-02-19T04:39:03.254Z,0.02
2016-02-19T04:40:03.258Z,0.03
2016-02-19T04:41:03.244Z,0
2016-02-19T04:42:03.232Z,0.02
2016-02-19T04:43:03.235Z,-0.04
2016-02-19T04:44:03.252Z,-0.01
2016-02-19T04:45:03.208Z,-0.03
2016-02-19T04:46:03.211Z,-0.04
2016-02-19T04:47:03.198Z,-0.1
2016-02-19T04:48:03.185Z,-0.04
2016-02-19T04:49:03.187Z,-0.14
2016-02-19T04:50:03.175Z,-0.07
2016-02-19T04:51:03.162Z,-0.05
2016-02-19T04:52:03.181Z,-0.01
2016-02-19T04:53:03.152Z,-0.14
2016-02-19T04:54:03.186Z,-0.19
2016-02-19T04:55:03.141Z,-0.18
2016-02-19T04:56:03.160Z,-0.18
2016-02-19T04:57:03.131Z,-0.11
2016-02-19T04:58:03.118Z,-0.19
2016-02-19T04:59:03.089Z,-0.21
2016-02-19T05:00:03.108Z,-0.14
2016-02-19T05:01:03.095Z,-0.21
2016-02-19T05:02:03.082Z,-0.19
2016-02-19T05:03:03.117Z,-0.18
2016-02-19T05:04:03.072Z,-0.21
2016-02-19T05:05:03.074Z,-0.1
2016-02-19T05:06:03.062Z,-0.21
2016-02-19T05:07:03.049Z,-0.18
2016-02-19T05:08:03.052Z,-0.21
2016-02-19T05:09:03.069Z,-0.16
2016-02-19T05:10:03.088Z,-0.25
2016-02-19T05:11:02.903Z,-0.23
2016-02-19T05:12:03.015Z,-0.26
2016-02-19T05:13:03.003Z,-0.25
2016-02-19T05:14:03.021Z,-0.26
2016-02-19T05:15:02.992Z,-0.21
2016-02-19T05:16:02.996Z,-0.21
2016-02-19T05:17:02.982Z,-0.29
2016-02-19T05:18:02.985Z,-0.31
2016-02-19T05:19:02.956Z,-0.21
2016-02-19T05:20:02.959Z,-0.25
2016-02-19T05:21:02.947Z,-0.31
2016-02-19T05:22:02.902Z,-0.36
2016-02-19T05:23:02.889Z,-0.28
2016-02-19T05:24:02.861Z,-0.37
2016-02-19T05:25:02.847Z,-0.33
2016-02-19T05:26:02.828Z,-0.28
2016-02-19T05:27:02.825Z,-0.37
2016-02-19T05:28:02.806Z,-0.36
2016-02-19T05:29:02.772Z,-0.26
2016-02-19T05:30:02.785Z,-0.36
2016-02-19T05:31:02.754Z,-0.37
2016-02-19T05:32:02.770Z,-0.37
2016-02-19T05:33:02.756Z,-0.33
2016-02-19T05:34:02.788Z,-0.31
2016-02-19T05:35:02.741Z,-0.34
2016-02-19T05:36:02.727Z,-0.39
2016-02-19T05:37:02.714Z,-0.39
2016-02-19T05:38:02.716Z,-0.33
2016-02-19T05:39:02.687Z,-0.36
2016-02-19T05:40:02.703Z,-0.33
2016-02-19T05:41:02.692Z,-0.33
2016-02-19T05:42:02.694Z,-0.29
2016-02-19T05:43:02.681Z,-0.31
2016-02-19T05:44:02.653Z,-0.31
2016-02-19T05:45:02.639Z,-0.31
2016-02-19T05:46:02.642Z,-0.29
2016-02-19T05:47:02.629Z,-0.31
2016-02-19T05:48:02.616Z,-0.26
2016-02-19T05:49:02.619Z,-0.28
2016-02-19T05:50:02.621Z,-0.26
2016-02-19T05:51:02.609Z,-0.29
2016-02-19T05:52:02.611Z,-0.28
2016-02-19T05:53:02.599Z,-0.31
2016-02-19T05:54:02.602Z,-0.33
2016-02-19T05:55:02.572Z,-0.31
2016-02-19T05:56:02.607Z,-0.33
2016-02-19T05:57:02.562Z,-0.26
2016-02-19T05:58:02.550Z,-0.29
2016-02-19T05:59:02.552Z,-0.29
2016-02-19T06:00:02.554Z,-0.33
2016-02-19T06:01:02.526Z,-0.36
2016-02-19T06:02:02.513Z,-0.26
2016-02-19T06:03:02.501Z,-0.28
2016-02-19T06:04:02.504Z,-0.33
2016-02-19T06:05:02.521Z,-0.36
2016-02-19T06:06:02.484Z,-0.37
2016-02-19T06:07:02.487Z,-0.31
2016-02-19T06:08:02.473Z,-0.33
2016-02-19T06:09:02.461Z,-0.36
2016-02-19T06:10:02.463Z,-0.36
2016-02-19T06:11:02.514Z,-0.34
2016-02-19T06:12:02.453Z,-0.33
2016-02-19T06:13:02.441Z,-0.36
2016-02-19T06:14:02.458Z,-0.34
2016-02-19T06:15:02.430Z,-0.34
2016-02-19T06:16:02.433Z,-0.39
2016-02-19T06:17:02.404Z,-0.29
2016-02-19T06:18:02.408Z,-0.37
2016-02-19T06:19:02.394Z,-0.29
2016-02-19T06:20:02.396Z,-0.34
2016-02-19T06:21:02.383Z,-0.34
2016-02-19T06:22:02.371Z,-0.39
2016-02-19T06:23:02.373Z,-0.34
2016-02-19T06:24:02.360Z,-0.36
2016-02-19T06:25:02.363Z,-0.29
2016-02-19T06:26:02.413Z,-0.31
2016-02-19T06:27:02.337Z,-0.29
2016-02-19T06:28:02.309Z,-0.29
2016-02-19T06:29:02.312Z,-0.23
2016-02-19T06:30:02.298Z,-0.25
2016-02-19T06:31:02.301Z,-0.31
2016-02-19T06:32:02.335Z,-0.23
2016-02-19T06:33:02.275Z,-0.22
2016-02-19T06:34:02.293Z,-0.18
2016-02-19T06:35:02.280Z,-0.07
2016-02-19T06:36:02.268Z,-0.08
2016-02-19T06:37:02.270Z,0
2016-02-19T06:38:02.242Z,-0.07
2016-02-19T06:39:02.261Z,-0.01
2016-02-19T06:40:02.232Z,0.04
2016-02-19T06:41:02.219Z,0
2016-02-19T06:42:02.222Z,0.14
2016-02-19T06:43:02.224Z,0.04
2016-02-19T06:46:01.560Z,0.15
2016-02-19T06:47:01.564Z,0.13
2016-02-19T06:48:01.550Z,0.15
2016-02-19T06:49:01.569Z,0.24
2016-02-19T06:50:01.555Z,0.21
2016-02-19T06:51:01.527Z,0.31
2016-02-19T06:52:01.514Z,0.2
2016-02-19T06:53:01.516Z,0.2
2016-02-19T06:54:01.505Z,0.31
2016-02-19T06:55:01.538Z,0.28
2016-02-19T06:56:01.510Z,0.28
2016-02-19T06:57:01.480Z,0.31
2016-02-19T06:58:01.483Z,0.35
2016-02-19T06:59:01.471Z,0.38
2016-02-19T07:00:01.473Z,0.35
2016-02-19T07:01:01.445Z,0.35
2016-02-19T07:02:00.682Z,0.41
2016-02-19T07:03:01.450Z,0.42
2016-02-19T07:04:01.437Z,0.38
2016-02-19T07:05:01.429Z,0.55
2016-02-19T07:06:01.432Z,0.51
2016-02-19T07:07:01.419Z,0.49
2016-02-19T07:08:01.437Z,0.44
2016-02-19T07:09:01.393Z,0.47
2016-02-19T07:10:01.395Z,0.5
2016-02-19T07:11:01.398Z,0.6
2016-02-19T07:12:01.370Z,0.51
2016-02-19T07:13:01.372Z,0.55
2016-02-19T07:14:01.375Z,0.61
2016-02-19T07:15:01.361Z,0.61
2016-02-19T07:16:01.365Z,0.69
2016-02-19T07:17:01.352Z,0.69
2016-02-19T07:18:01.354Z,0.76
2016-02-19T07:19:01.341Z,0.76
2016-02-19T07:20:01.329Z,0.78
2016-02-19T07:21:01.347Z,0.88
2016-02-19T07:22:01.319Z,0.84
2016-02-19T07:23:01.322Z,0.88
2016-02-19T07:24:01.293Z,0.88
2016-02-19T07:25:01.295Z,0.93
2016-02-19T07:26:01.299Z,0.96
2016-02-19T07:27:01.301Z,0.94
2016-02-19T07:28:01.304Z,0.94
2016-02-19T07:29:00.509Z,1.09
2016-02-19T07:30:01.262Z,1.06
2016-02-19T07:31:01.265Z,1.04
2016-02-19T07:32:01.251Z,1.05
2016-02-19T07:33:01.255Z,1.05
2016-02-19T07:34:01.257Z,1.08
2016-02-19T07:35:01.228Z,1.05
2016-02-19T07:36:01.231Z,1.11
2016-02-19T07:37:01.218Z,1.08
2016-02-19T07:38:01.221Z,1.11
2016-02-19T07:39:01.208Z,1.11
2016-02-19T07:40:01.195Z,1.06
2016-02-19T07:41:01.214Z,1.11
2016-02-19T07:42:01.184Z,1.11
2016-02-19T07:43:01.203Z,1.23
2016-02-19T07:44:01.175Z,1.12
2016-02-19T07:45:01.239Z,1.23
2016-02-19T07:46:01.164Z,1.06
2016-02-19T07:47:01.480Z,1.16
2016-02-19T07:48:01.420Z,1.16
2016-02-19T07:49:01.500Z,1.14
2016-02-19T07:50:01.377Z,1.18
2016-02-19T07:51:01.413Z,1.2
2016-02-19T07:52:01.415Z,1.2
2016-02-19T07:53:01.636Z,1.2
2016-02-19T07:54:01.389Z,1.18
2016-02-19T07:55:01.501Z,1.15
2016-02-19T07:56:01.379Z,1.2
2016-02-19T07:57:01.225Z,1.24
2016-02-19T07:58:01.463Z,1.24
2016-02-19T07:59:01.387Z,1.23
2016-02-19T08:00:01.468Z,1.27
2016-02-19T08:01:01.345Z,1.23
2016-02-19T08:02:01.348Z,1.15
2016-02-19T08:03:01.445Z,1.22
2016-02-19T08:04:01.290Z,1.27
2016-02-19T08:05:01.252Z,1.2
2016-02-19T08:06:01.161Z,1.18
2016-02-19T08:07:01.273Z,1.29
2016-02-19T08:08:01.931Z,1.3
2016-02-19T08:09:01.278Z,1.26
2016-02-19T08:10:01.389Z,1.27
2016-02-19T08:11:01.064Z,1.29
2016-02-19T08:12:01.239Z,1.32
2016-02-19T08:13:01.461Z,1.33
2016-02-19T08:14:01.244Z,1.36
2016-02-19T08:15:01.372Z,1.3
2016-02-19T08:16:01.297Z,1.42
2016-02-19T08:17:01.222Z,1.47
2016-02-19T08:18:01.349Z,1.48
2016-02-19T08:19:01.116Z,1.51
2016-02-19T08:20:01.339Z,1.52
2016-02-19T08:21:01.169Z,1.48
2016-02-19T08:22:01.141Z,1.62
2016-02-19T08:23:01.269Z,1.65
2016-02-19T08:24:01.177Z,1.66
2016-02-19T08:25:01.305Z,1.66
2016-02-19T08:26:01.199Z,1.62
2016-02-19T08:27:01.295Z,1.72
2016-02-19T08:28:01.235Z,1.73
2016-02-19T08:29:01.159Z,1.77
2016-02-19T08:30:01.351Z,1.8
2016-02-19T08:31:01.149Z,1.83
2016-02-19T08:32:01.121Z,1.73
2016-02-19T08:33:01.124Z,1.9
2016-02-19T08:34:01.220Z,1.84
2016-02-19T08:35:01.004Z,1.86
2016-02-19T08:36:01.226Z,1.88
2016-02-19T08:37:01.135Z,1.88
2016-02-19T08:38:01.137Z,1.91
2016-02-19T08:39:01.092Z,1.91
2016-02-19T08:40:01.205Z,1.91
2016-02-19T08:41:01.145Z,1.98
2016-02-19T08:42:01.194Z,1.93
2016-02-19T08:43:01.089Z,1.98
2016-02-19T08:44:00.966Z,2.03
2016-02-19T08:45:01.125Z,2
2016-02-19T08:46:01.049Z,1.99
2016-02-19T08:47:01.052Z,2.17
2016-02-19T08:48:01.242Z,2.17
2016-02-19T08:49:01.120Z,2.1
2016-02-19T08:50:01.044Z,2.07
2016-02-19T08:51:01.110Z,2.23
2016-02-19T08:52:00.784Z,2.16
2016-02-19T08:53:01.022Z,2.21
2016-02-19T08:54:01.024Z,2.28
2016-02-19T08:55:00.996Z,2.28
2016-02-19T08:56:01.045Z,2.34
2016-02-19T08:57:00.969Z,2.36
2016-02-19T08:58:01.035Z,2.41
2016-02-19T08:59:00.959Z,2.43
2016-02-19T09:00:01.024Z,2.42
2016-02-19T09:01:01.059Z,2.46
2016-02-19T09:02:00.998Z,2.56
2016-02-19T09:03:01.001Z,2.57
2016-02-19T09:04:01.051Z,2.6
2016-02-19T09:05:00.976Z,2.63
2016-02-19T09:06:00.993Z,2.61
2016-02-19T09:07:00.934Z,2.69
2016-02-19T09:08:01.093Z,2.63
2016-02-19T09:09:00.955Z,2.78
2016-02-19T09:10:00.833Z,2.79
2016-02-19T09:11:01.039Z,2.81
2016-02-19T09:12:00.964Z,2.97
2016-02-19T09:13:00.950Z,2.82
2016-02-19T09:14:00.969Z,2.95
2016-02-19T09:15:00.861Z,3
2016-02-19T09:16:00.208Z,3.02
2016-02-19T09:17:00.991Z,3.05
2016-02-19T09:18:00.933Z,3.13
2016-02-19T09:19:01.028Z,3.14
2016-02-19T09:20:00.905Z,3.15
2016-02-19T09:21:00.283Z,3.2
2016-02-19T09:22:00.896Z,3.17
2016-02-19T09:23:00.930Z,3.14
2016-02-19T09:24:01.042Z,3.18
2016-02-19T09:25:00.919Z,3.26
2016-02-19T09:26:00.079Z,3.21
2016-02-19T09:27:00.831Z,3.31
2016-02-19T09:28:00.991Z,3.26
2016-02-19T09:29:00.821Z,3.35
2016-02-19T09:30:00.792Z,3.31
2016-02-19T09:31:00.826Z,3.39
2016-02-19T09:32:01.017Z,3.26
2016-02-19T09:33:00.848Z,3.36
2016-02-19T09:34:00.710Z,3.39
2016-02-19T09:35:00.821Z,3.43
2016-02-19T09:36:00.934Z,3.43
2016-02-19T09:37:00.951Z,3.39
2016-02-19T09:38:01.065Z,3.42
2016-02-19T09:39:01.114Z,3.4
2016-02-19T09:40:00.834Z,3.51
2016-02-19T09:41:00.822Z,3.52
2016-02-19T09:42:00.825Z,3.55
2016-02-19T09:43:00.921Z,3.55
2016-02-19T09:44:01.096Z,3.6
2016-02-19T09:45:00.755Z,3.52
2016-02-19T09:46:00.757Z,3.7
2016-02-19T09:47:00.853Z,3.54
2016-02-19T09:48:01.622Z,3.65
2016-02-19T09:49:00.969Z,3.65
2016-02-19T09:50:00.924Z,3.62
2016-02-19T09:51:00.802Z,3.6
2016-02-19T09:52:00.914Z,3.73
2016-02-19T09:53:00.854Z,3.68
2016-02-19T09:54:00.795Z,3.62
2016-02-19T09:55:00.813Z,3.76
2016-02-19T09:56:00.721Z,3.76
2016-02-19T09:57:00.662Z,3.76
2016-02-19T09:58:00.696Z,3.78
2016-02-19T09:59:00.730Z,3.8
2016-02-19T10:00:00.857Z,3.8
2016-02-19T10:01:01.001Z,3.87
2016-02-19T10:02:00.832Z,3.86
2016-02-19T10:03:00.740Z,3.84
2016-02-19T10:04:00.696Z,3.84
2016-02-19T10:05:00.746Z,3.87
2016-02-19T10:06:00.904Z,3.96
2016-02-19T10:07:00.705Z,3.91
2016-02-19T10:08:00.723Z,3.94
2016-02-19T10:09:00.835Z,4
2016-02-19T10:10:00.884Z,3.98
2016-02-19T10:11:00.840Z,4.05
2016-02-19T10:12:00.483Z,4.09
2016-02-19T10:13:00.940Z,4.08
2016-02-19T10:14:00.880Z,4.12
2016-02-19T10:15:00.758Z,4.18
2016-02-19T10:16:00.885Z,4.18
2016-02-19T10:17:00.872Z,4.27
2016-02-19T10:18:00.781Z,4.32
2016-02-19T10:19:00.768Z,4.24
2016-02-19T10:20:00.724Z,4.32
2016-02-19T10:21:00.836Z,4.37
2016-02-19T10:22:00.776Z,4.33
2016-02-19T10:23:00.733Z,4.5
2016-02-19T10:24:05.953Z,4.48
2016-02-19T10:25:00.909Z,4.47
2016-02-19T10:26:00.709Z,4.5
2016-02-19T10:27:00.774Z,4.47
2016-02-19T10:28:00.730Z,4.58
2016-02-19T10:29:00.873Z,4.6
2016-02-19T10:30:00.813Z,4.62
2016-02-19T10:31:00.660Z,4.67
2016-02-19T10:32:00.069Z,4.66
2016-02-19T10:33:00.885Z,4.7
2016-02-19T10:34:00.871Z,4.8
2016-02-19T10:35:00.701Z,4.77
2016-02-19T10:36:00.673Z,4.85
2016-02-19T10:37:00.723Z,4.85
2016-02-19T10:38:00.772Z,4.96
2016-02-19T10:39:00.681Z,4.94
2016-02-19T10:40:00.575Z,4.97
2016-02-19T10:41:00.592Z,4.92
2016-02-19T10:42:00.877Z,4.91
2016-02-19T10:43:00.801Z,4.99
2016-02-19T10:44:00.647Z,5
2016-02-19T10:45:01.901Z,5.04
2016-02-19T10:46:00.903Z,5
2016-02-19T10:47:00.781Z,4.97
2016-02-19T10:47:59.814Z,5
2016-02-19T10:49:00.770Z,4.97
2016-02-19T10:50:00.586Z,5.04
2016-02-19T10:51:00.886Z,5.02
2016-02-19T10:52:00.608Z,5
2016-02-19T10:53:00.391Z,5.03
2016-02-19T10:54:00.597Z,4.99
2016-02-19T10:55:01.584Z,5.03
2016-02-19T10:56:00.664Z,5.09
2016-02-19T10:57:00.479Z,5.15
2016-02-19T10:58:00.748Z,5.1
2016-02-19T10:59:00.594Z,5.2
2016-02-19T11:00:00.597Z,5.17
2016-02-19T11:01:00.616Z,5.2
2016-02-19T11:02:00.524Z,5.27
2016-02-19T11:03:00.604Z,5.28
2016-02-19T11:04:00.593Z,5.25
2016-02-19T11:05:00.735Z,5.3
2016-02-19T11:06:00.581Z,5.28
2016-02-19T11:07:01.569Z,5.28
2016-02-19T11:08:00.478Z,5.27
2016-02-19T11:09:01.074Z,5.33
2016-02-19T11:10:00.562Z,5.4
2016-02-19T11:11:00.564Z,5.35
2016-02-19T11:12:00.520Z,5.38
2016-02-19T11:13:00.554Z,5.42
2016-02-19T11:14:01.056Z,5.48
2016-02-19T11:15:00.419Z,5.51
2016-02-19T11:16:00.531Z,5.43
2016-02-19T11:17:00.550Z,5.4
2016-02-19T11:18:00.427Z,5.45
2016-02-19T11:19:00.601Z,5.51
2016-02-19T11:20:00.573Z,5.54
2016-02-19T11:21:00.560Z,5.51
2016-02-19T11:22:00.531Z,5.48
2016-02-19T11:23:00.580Z,5.48
2016-02-19T11:24:00.661Z,5.57
2016-02-19T11:25:00.524Z,5.54
2016-02-19T11:26:00.667Z,5.54
2016-02-19T11:27:00.497Z,5.61
2016-02-19T11:28:00.438Z,5.46
2016-02-19T11:29:00.597Z,5.48
2016-02-19T11:30:00.677Z,5.6
2016-02-19T11:31:00.524Z,5.53
2016-02-19T11:32:00.621Z,5.63
2016-02-19T11:33:00.560Z,5.63
2016-02-19T11:34:00.595Z,5.71
2016-02-19T11:35:00.660Z,5.75
2016-02-19T11:36:00.521Z,5.75
2016-02-19T11:37:00.604Z,5.74
2016-02-19T11:38:00.637Z,5.74
2016-02-19T11:39:00.545Z,5.79
2016-02-19T11:40:00.549Z,5.78
2016-02-19T11:41:00.567Z,5.78
2016-02-19T11:42:00.569Z,5.76
2016-02-19T11:43:00.540Z,5.75
2016-02-19T11:44:00.731Z,5.79
2016-02-19T11:45:00.592Z,5.79
2016-02-19T11:46:00.659Z,5.83
2016-02-19T11:47:00.505Z,5.83
2016-02-19T11:48:00.491Z,5.68
2016-02-19T11:49:00.511Z,5.82
2016-02-19T11:50:00.528Z,5.85
2016-02-19T11:51:00.593Z,5.81
2016-02-19T11:52:00.549Z,5.85
2016-02-19T11:53:00.489Z,5.82
2016-02-19T11:54:00.508Z,5.75
2016-02-19T11:55:00.511Z,5.72
2016-02-19T11:56:00.560Z,5.75
2016-02-19T11:57:00.657Z,5.78
2016-02-19T11:58:00.394Z,5.65
2016-02-19T11:59:00.552Z,5.75
2016-02-19T12:00:00.524Z,5.71
2016-02-19T12:01:00.464Z,5.72
2016-02-19T12:02:00.295Z,5.75
2016-02-19T12:03:00.252Z,5.65
2016-02-19T12:04:00.254Z,5.67
2016-02-19T12:05:00.257Z,5.78
2016-02-19T12:06:00.447Z,5.82
2016-02-19T12:06:59.684Z,5.74
2016-02-19T12:08:00.655Z,5.75
2016-02-19T12:09:00.579Z,5.79
2016-02-19T12:10:00.488Z,5.83
2016-02-19T12:11:01.490Z,5.85
2016-02-19T12:12:00.432Z,5.86
2016-02-19T12:13:00.559Z,5.82
2016-02-19T12:14:00.452Z,5.82
2016-02-19T12:15:00.518Z,5.9
2016-02-19T12:16:00.489Z,5.9
2016-02-19T12:17:00.241Z,5.96
2016-02-19T12:18:00.464Z,5.9
2016-02-19T12:19:00.544Z,5.97
2016-02-19T12:20:00.515Z,5.86
2016-02-19T12:21:00.440Z,5.99
2016-02-19T12:22:00.474Z,5.97
2016-02-19T12:23:00.492Z,6
2016-02-19T12:24:00.525Z,5.97
2016-02-19T12:25:00.341Z,5.99
2016-02-19T12:26:00.609Z,5.94
2016-02-19T12:27:00.658Z,5.89
2016-02-19T12:28:00.536Z,5.99
2016-02-19T12:29:00.493Z,5.96
2016-02-19T12:30:00.558Z,5.93
2016-02-19T12:31:00.404Z,5.9
2016-02-19T12:32:00.501Z,5.79
2016-02-19T12:33:00.488Z,5.94
2016-02-19T12:35:00.446Z,5.79
2016-02-19T12:36:00.387Z,5.86
2016-02-19T12:37:00.546Z,5.76
2016-02-19T12:38:00.517Z,5.82
2016-02-19T12:39:00.551Z,5.82
2016-02-19T12:40:00.460Z,5.85
2016-02-19T12:41:00.509Z,5.83
2016-02-19T12:42:00.448Z,5.79
2016-02-19T12:43:00.421Z,5.79
2016-02-19T12:44:00.423Z,5.83
2016-02-19T12:45:00.379Z,5.79
2016-02-19T12:46:00.367Z,5.83
2016-02-19T12:47:00.306Z,5.83
2016-02-19T12:48:00.450Z,5.93
2016-02-19T12:49:00.390Z,5.83
2016-02-19T12:50:00.517Z,5.9
2016-02-19T12:51:00.411Z,5.94
2016-02-19T12:52:00.570Z,6
2016-02-19T12:53:00.588Z,5.94
2016-02-19T12:54:00.420Z,6.04
2016-02-19T12:55:00.531Z,5.97
2016-02-19T12:56:00.533Z,5.99
2016-02-19T12:57:00.568Z,6.01
2016-02-19T12:58:00.414Z,6.12
2016-02-19T12:59:00.198Z,6.19
2016-02-19T13:00:00.452Z,6.06
2016-02-19T13:01:14.516Z,6.17
2016-02-19T13:02:00.300Z,6.15
2016-02-19T13:03:00.146Z,6.18
2016-02-19T13:04:00.493Z,6.12
2016-02-19T13:05:00.168Z,6.27
2016-02-19T13:06:00.154Z,6.18
2016-02-19T13:07:00.141Z,6.25
2016-02-19T13:08:00.316Z,6.31
2016-02-19T13:09:00.600Z,6.27
2016-02-19T13:10:00.213Z,6.31
2016-02-19T13:11:00.184Z,6.37
2016-02-19T13:12:00.061Z,6.4
2016-02-19T13:13:00.158Z,6.43
2016-02-19T13:14:00.192Z,6.48
2016-02-19T13:14:59.723Z,6.51
2016-02-19T13:16:00.260Z,6.46
2016-02-19T13:17:00.356Z,6.49
2016-02-19T13:18:00.156Z,6.51
2016-02-19T13:19:00.173Z,6.58
2016-02-19T13:20:00.192Z,6.59